Terminal Aerodrome Forecast
Issued by NWS

Home | Current Version | Previous Version | Text Only | Print | Product List | Glossary On
Versions: 1 2 3 4 5 6 7 8 9 10 11 12 13 14 15 16 17 18 19 20 21 22 23
000
FTUS46 KSEW 272000 AAA
TAFBFI
TAF AMD
KBFI 272059Z 2721/2818 17015G22KT P6SM -SHRA BKN030 BKN100
     FM280300 17014G24KT P6SM -SHRA BKN027 OVC100
     FM281200 17014G24KT P6SM RA OVC017
     FM281400 36005KT P6SM -RA OVC017=

USA.gov is the U.S. government's official web portal to all federal, state and local government web resources and services.